createdAt,value
2022-09-17T00:01:28.654Z,76.27
2022-09-17T00:04:00.250Z,76.54
2022-09-17T00:06:27.760Z,78.83
2022-09-17T00:08:55.182Z,78.24
2022-09-17T00:11:25.273Z,77.02
2022-09-17T00:13:53.130Z,77.50
2022-09-17T00:16:31.246Z,78.03
2022-09-17T00:18:59.308Z,80.55
2022-09-17T00:21:26.876Z,79.60
2022-09-17T00:23:58.850Z,80.65
2022-09-17T00:26:26.665Z,78.83
2022-09-17T00:28:54.206Z,80.62
2022-09-17T00:31:21.587Z,81.89
2022-09-17T00:33:49.335Z,80.96
2022-09-17T00:36:16.738Z,81.52
2022-09-17T00:38:44.214Z,83.60
2022-09-17T00:41:11.803Z,82.74
2022-09-17T00:43:46.204Z,80.90
2022-09-17T00:46:29.075Z,81.32
2022-09-17T00:48:57.434Z,80.08
2022-09-17T00:51:28.843Z,81.05
2022-09-17T00:53:56.394Z,81.94
2022-09-17T00:56:29.738Z,81.95
2022-09-17T00:58:57.449Z,80.26
2022-09-17T01:01:24.841Z,82.57
2022-09-17T01:03:52.272Z,82.04
2022-09-17T01:06:32.617Z,79.02
2022-09-17T01:09:25.279Z,77.91
2022-09-17T01:12:18.278Z,78.82
2022-09-17T01:15:10.304Z,78.33
2022-09-17T01:17:43.886Z,78.07
2022-09-17T01:20:33.973Z,78.91
2022-09-17T01:23:16.958Z,77.44
2022-09-17T01:26:21.110Z,76.54
2022-09-17T01:29:00.936Z,78.06
2022-09-17T01:31:37.591Z,78.62
2022-09-17T01:34:31.949Z,77.91
2022-09-17T01:37:19.176Z,78.14
2022-09-17T01:39:49.073Z,77.62
2022-09-17T01:42:26.064Z,78.07
2022-09-17T01:45:04.853Z,76.55
2022-09-17T01:47:44.785Z,78.03
2022-09-17T01:50:14.267Z,77.20
2022-09-17T01:52:41.857Z,76.04
2022-09-17T01:55:10.862Z,76.57
2022-09-17T01:57:52.963Z,77.97
2022-09-17T02:00:20.571Z,76.77
2022-09-17T02:03:20.581Z,75.38
2022-09-17T02:06:12.126Z,77.67
2022-09-17T02:08:46.765Z,77.25
2022-09-17T02:11:15.479Z,76.81
2022-09-17T02:14:05.277Z,74.54
2022-09-17T02:16:34.717Z,75.26
2022-09-17T02:19:16.695Z,75.17
2022-09-17T02:21:47.213Z,76.16
2022-09-17T02:24:20.576Z,75.36
2022-09-17T02:27:15.047Z,75.23
2022-09-17T02:29:42.937Z,71.90
2022-09-17T02:32:11.200Z,72.21
2022-09-17T02:34:38.769Z,73.08
2022-09-17T02:37:06.239Z,74.65
2022-09-17T02:39:33.844Z,73.58
2022-09-17T02:42:20.719Z,73.86
2022-09-17T02:45:16.397Z,73.83
2022-09-17T02:47:52.977Z,72.45
2022-09-17T02:50:41.599Z,72.10
2022-09-17T02:53:17.963Z,73.56
2022-09-17T02:56:04.154Z,75.79
2022-09-17T02:58:34.226Z,73.50
2022-09-17T03:01:06.076Z,73.57
2022-09-17T03:03:35.522Z,72.44
2022-09-17T03:06:03.137Z,72.22
2022-09-17T03:08:34.181Z,70.79
2022-09-17T03:11:01.496Z,72.68
2022-09-17T03:13:29.089Z,73.47
2022-09-17T03:15:56.568Z,72.24
2022-09-17T03:18:24.000Z,72.44
2022-09-17T03:20:51.623Z,73.13
2022-09-17T03:23:19.103Z,72.40
2022-09-17T03:25:46.866Z,72.29
2022-09-17T03:28:14.452Z,73.11
2022-09-17T03:30:43.549Z,72.16
2022-09-17T03:33:10.907Z,74.01
2022-09-17T03:35:38.871Z,75.04
2022-09-17T03:38:06.206Z,73.98
2022-09-17T03:40:33.631Z,73.49
2022-09-17T03:43:01.229Z,73.19
2022-09-17T03:45:28.580Z,74.45
2022-09-17T03:47:56.901Z,73.70
2022-09-17T03:50:24.524Z,73.27
2022-09-17T03:52:51.945Z,73.17
2022-09-17T03:55:19.335Z,72.88
2022-09-17T03:57:46.934Z,76.03
2022-09-17T04:00:17.395Z,73.71
2022-09-17T04:02:45.304Z,73.21
2022-09-17T04:05:12.712Z,72.10
2022-09-17T04:07:41.058Z,71.93
2022-09-17T04:10:08.803Z,72.13
2022-09-17T04:12:36.350Z,72.04
2022-09-17T04:15:04.140Z,72.54
2022-09-17T04:17:31.884Z,73.10
2022-09-17T04:19:59.365Z,72.22
2022-09-17T04:22:26.694Z,70.47
2022-09-17T04:24:54.402Z,70.32
2022-09-17T04:27:21.751Z,72.49
2022-09-17T04:29:49.069Z,71.22
2022-09-17T04:32:16.698Z,71.55
2022-09-17T04:34:44.032Z,72.22
2022-09-17T04:37:11.404Z,70.35
2022-09-17T04:39:39.513Z,72.83
2022-09-17T04:42:06.924Z,74.85
2022-09-17T04:44:34.259Z,73.44
2022-09-17T04:47:01.870Z,73.50
2022-09-17T04:49:30.987Z,74.57
2022-09-17T04:51:58.454Z,75.11
2022-09-17T04:54:26.047Z,74.60
2022-09-17T04:56:53.424Z,73.86
2022-09-17T04:59:20.778Z,74.75
2022-09-17T05:01:49.476Z,73.66
2022-09-17T05:04:16.907Z,74.07
2022-09-17T05:06:44.239Z,74.50
2022-09-17T05:09:11.852Z,74.45
2022-09-17T05:11:39.184Z,74.32
2022-09-17T05:14:06.527Z,74.74
2022-09-17T05:16:34.162Z,73.92
2022-09-17T05:19:01.772Z,74.62
2022-09-17T05:21:29.179Z,72.85
2022-09-17T05:23:56.795Z,73.31
2022-09-17T05:26:24.791Z,72.80
2022-09-17T05:28:52.152Z,73.50
2022-09-17T05:31:19.847Z,73.10
2022-09-17T05:33:47.221Z,71.21
2022-09-17T05:36:14.531Z,70.44
2022-09-17T05:38:42.169Z,72.64
2022-09-17T05:41:09.509Z,73.62
2022-09-17T05:43:36.866Z,73.28
2022-09-17T05:46:04.847Z,71.53
2022-09-17T05:48:32.602Z,72.52
2022-09-17T05:50:59.957Z,70.46
2022-09-17T05:53:27.585Z,70.18
2022-09-17T05:55:58.666Z,70.21
2022-09-17T05:58:26.065Z,72.32
2022-09-17T06:00:53.968Z,72.18
2022-09-17T06:03:22.888Z,73.89
2022-09-17T06:05:58.325Z,71.54
2022-09-17T06:08:27.082Z,70.76
2022-09-17T06:10:56.132Z,70.45
2022-09-17T06:13:26.697Z,69.79
2022-09-17T06:15:54.209Z,71.87
2022-09-17T06:18:21.556Z,72.79
2022-09-17T06:21:02.061Z,70.63
2022-09-17T06:23:35.224Z,68.81
2022-09-17T06:26:04.615Z,70.72
2022-09-17T06:28:32.129Z,68.23
2022-09-17T06:31:03.587Z,67.08
2022-09-17T06:33:31.592Z,66.18
2022-09-17T06:36:16.739Z,66.21
2022-09-17T06:38:45.190Z,66.48
2022-09-17T06:41:14.518Z,69.32
2022-09-17T06:43:41.877Z,67.46
2022-09-17T06:46:10.258Z,67.83
2022-09-17T06:48:37.679Z,67.16
2022-09-17T06:51:06.982Z,69.09
2022-09-17T06:53:34.598Z,66.43
2022-09-17T06:56:06.319Z,65.28
2022-09-17T06:58:37.066Z,64.33
2022-09-17T07:01:05.029Z,64.81
2022-09-17T07:03:32.793Z,65.47
2022-09-17T07:06:00.170Z,66.31
2022-09-17T07:08:27.791Z,65.29
2022-09-17T07:10:56.465Z,63.62
2022-09-17T07:13:24.450Z,65.02
2022-09-17T07:15:55.710Z,63.33
2022-09-17T07:18:23.424Z,65.07
2022-09-17T07:20:55.246Z,63.23
2022-09-17T07:23:24.338Z,63.07
2022-09-17T07:25:55.805Z,62.10
2022-09-17T07:28:23.880Z,62.00
2022-09-17T07:30:51.489Z,63.74
2022-09-17T07:33:23.261Z,65.46
2022-09-17T07:36:00.501Z,65.06
2022-09-17T07:38:28.341Z,63.54
2022-09-17T07:40:57.577Z,62.12
2022-09-17T07:43:28.837Z,61.63
2022-09-17T07:46:00.555Z,62.82
2022-09-17T07:48:28.291Z,61.83
2022-09-17T07:50:56.178Z,62.08
2022-09-17T07:53:23.548Z,63.69
2022-09-17T07:55:57.286Z,61.79
2022-09-17T07:58:29.373Z,61.58
2022-09-17T08:01:09.985Z,61.73
2022-09-17T08:03:38.500Z,63.82
2022-09-17T08:06:07.519Z,63.99
2022-09-17T08:08:35.772Z,64.43
2022-09-17T08:11:04.491Z,63.42
2022-09-17T08:13:32.054Z,62.09
2022-09-17T08:16:00.841Z,62.74
2022-09-17T08:18:28.666Z,63.79
2022-09-17T08:20:59.549Z,61.10
2022-09-17T08:23:27.250Z,61.49
2022-09-17T08:25:55.463Z,61.88
2022-09-17T08:28:23.882Z,64.92
2022-09-17T08:30:51.781Z,64.13
2022-09-17T08:33:19.544Z,63.77
2022-09-17T08:35:53.698Z,64.29
2022-09-17T08:38:21.393Z,65.46
2022-09-17T08:41:00.786Z,63.05
2022-09-17T08:43:28.381Z,64.40
2022-09-17T08:45:55.781Z,65.73
2022-09-17T08:48:23.109Z,63.88
2022-09-17T08:50:51.165Z,65.91
2022-09-17T08:53:29.196Z,64.62
2022-09-17T08:56:13.844Z,65.45
2022-09-17T08:59:22.176Z,63.38
2022-09-17T09:02:00.817Z,63.68
2022-09-17T09:04:34.285Z,62.39
2022-09-17T09:07:10.174Z,62.48
2022-09-17T09:09:39.957Z,64.78
2022-09-17T09:12:22.737Z,65.41
2022-09-17T09:15:05.679Z,66.43
2022-09-17T09:17:42.205Z,64.97
2022-09-17T09:20:45.359Z,64.06
2022-09-17T09:23:18.666Z,64.17
2022-09-17T09:25:59.398Z,67.04
2022-09-17T09:28:33.151Z,66.56
2022-09-17T09:31:06.597Z,64.87
2022-09-17T09:33:37.951Z,62.56
2022-09-17T09:36:11.702Z,63.94
2022-09-17T09:39:01.788Z,63.85
2022-09-17T09:41:32.961Z,63.72
2022-09-17T09:44:04.720Z,63.59
2022-09-17T09:46:50.926Z,64.15
2022-09-17T09:49:31.089Z,63.19
2022-09-17T09:52:20.986Z,63.93
2022-09-17T09:55:08.689Z,65.68
2022-09-17T09:57:43.891Z,65.14
2022-09-17T10:00:37.685Z,63.84
2022-09-17T10:03:20.139Z,62.67
2022-09-17T10:05:59.284Z,60.73
2022-09-17T10:08:27.603Z,61.40
2022-09-17T10:11:05.712Z,63.07
2022-09-17T10:13:37.402Z,63.45
2022-09-17T10:16:17.908Z,62.83
2022-09-17T10:18:49.069Z,61.52
2022-09-17T10:21:36.406Z,61.59
2022-09-17T10:24:04.486Z,59.11
2022-09-17T10:26:35.792Z,58.34
2022-09-17T10:29:04.964Z,58.26
2022-09-17T10:31:54.786Z,57.79
2022-09-17T10:34:23.118Z,58.71
2022-09-17T10:36:50.784Z,57.95
2022-09-17T10:39:44.421Z,57.31
2022-09-17T10:42:11.860Z,58.06
2022-09-17T10:44:39.445Z,54.88
2022-09-17T10:47:29.482Z,53.58
2022-09-17T10:50:20.826Z,55.55
2022-09-17T10:52:49.646Z,55.56
2022-09-17T10:55:37.575Z,55.74
2022-09-17T10:58:07.940Z,56.31
2022-09-17T11:00:47.882Z,55.23
2022-09-17T11:03:27.018Z,56.70
2022-09-17T11:06:15.414Z,56.50
2022-09-17T11:08:54.770Z,58.69
2022-09-17T11:11:45.788Z,57.61
2022-09-17T11:14:35.874Z,57.71
2022-09-17T11:17:40.951Z,57.26
2022-09-17T11:20:14.250Z,58.24
2022-09-17T11:23:15.621Z,57.17
2022-09-17T11:26:01.286Z,57.75
2022-09-17T11:29:11.260Z,58.29
2022-09-17T11:32:14.071Z,58.43
2022-09-17T11:34:53.939Z,58.12
2022-09-17T11:37:24.308Z,58.83
2022-09-17T11:39:57.339Z,58.46
2022-09-17T11:42:28.302Z,57.71
2022-09-17T11:45:10.891Z,59.50
2022-09-17T11:48:00.291Z,59.46
2022-09-17T11:50:38.084Z,60.20
2022-09-17T11:53:23.567Z,58.32
2022-09-17T11:56:00.329Z,57.00
2022-09-17T11:58:40.272Z,57.35
2022-09-17T12:01:32.585Z,55.46
2022-09-17T12:04:01.771Z,55.84
2022-09-17T12:06:42.002Z,56.15
2022-09-17T12:09:14.211Z,55.52
2022-09-17T12:11:45.858Z,54.54
2022-09-17T12:14:26.728Z,55.48
2022-09-17T12:16:57.642Z,56.74
2022-09-17T12:19:41.078Z,57.05
2022-09-17T12:22:12.375Z,56.42
2022-09-17T12:24:41.572Z,57.78
2022-09-17T12:27:17.067Z,57.82
2022-09-17T12:29:47.690Z,56.48
2022-09-17T12:32:22.467Z,56.62
2022-09-17T12:35:02.961Z,56.75
2022-09-17T12:37:52.164Z,57.96
2022-09-17T12:40:35.017Z,58.15
2022-09-17T12:43:36.669Z,58.07
2022-09-17T12:46:07.368Z,57.02
2022-09-17T12:48:37.668Z,57.19
2022-09-17T12:51:05.335Z,57.09
2022-09-17T12:53:36.915Z,56.36
2022-09-17T12:56:27.288Z,57.14
2022-09-17T12:59:00.357Z,56.71
2022-09-17T13:01:41.542Z,54.85
2022-09-17T13:04:16.282Z,56.02
2022-09-17T13:06:59.224Z,55.72
2022-09-17T13:09:35.513Z,55.44
2022-09-17T13:12:04.694Z,55.44
2022-09-17T13:15:09.538Z,57.17
2022-09-17T13:17:52.413Z,57.27
2022-09-17T13:20:32.884Z,55.81
2022-09-17T13:23:00.599Z,57.34
2022-09-17T13:25:27.964Z,58.51
2022-09-17T13:28:09.167Z,58.11
2022-09-17T13:30:59.430Z,57.77
2022-09-17T13:33:50.407Z,58.57
2022-09-17T13:36:33.071Z,59.49
2022-09-17T13:39:02.233Z,59.77
2022-09-17T13:41:30.169Z,60.04
2022-09-17T13:43:57.894Z,60.16
2022-09-17T13:46:25.821Z,59.63
2022-09-17T13:48:56.391Z,58.67
2022-09-17T13:51:32.807Z,58.35
2022-09-17T13:54:04.482Z,59.59
2022-09-17T13:56:34.804Z,59.43
2022-09-17T13:59:10.501Z,59.64
2022-09-17T14:02:17.430Z,58.67
2022-09-17T14:04:45.361Z,59.14
2022-09-17T14:07:21.104Z,59.02
2022-09-17T14:09:58.429Z,59.54
2022-09-17T14:13:00.983Z,58.46
2022-09-17T14:15:40.442Z,56.93
2022-09-17T14:18:29.295Z,58.55
2022-09-17T14:21:10.064Z,58.89
2022-09-17T14:23:49.517Z,56.47
2022-09-17T14:26:24.952Z,58.65
2022-09-17T14:29:00.561Z,59.64
2022-09-17T14:31:32.105Z,58.95
2022-09-17T14:34:01.583Z,58.28
2022-09-17T14:36:35.752Z,58.86
2022-09-17T14:39:03.226Z,58.14
2022-09-17T14:41:35.604Z,58.55
2022-09-17T14:44:08.347Z,57.09
2022-09-17T14:46:36.708Z,58.07
2022-09-17T14:49:23.031Z,58.07
2022-09-17T14:51:51.546Z,57.24
2022-09-17T14:54:36.010Z,57.50
2022-09-17T14:57:10.313Z,58.64
2022-09-17T14:59:59.604Z,59.54
2022-09-17T15:02:36.242Z,59.58
2022-09-17T15:05:36.769Z,57.66
2022-09-17T15:08:10.405Z,57.69
2022-09-17T15:10:52.593Z,58.06
2022-09-17T15:13:24.192Z,58.30
2022-09-17T15:16:07.720Z,56.71
2022-09-17T15:18:38.246Z,56.63
2022-09-17T15:21:15.112Z,55.50
2022-09-17T15:23:42.718Z,55.51
2022-09-17T15:26:10.048Z,55.59
2022-09-17T15:28:39.381Z,57.38
2022-09-17T15:31:10.152Z,56.65
2022-09-17T15:33:37.909Z,56.09
2022-09-17T15:36:15.875Z,58.29
2022-09-17T15:38:44.612Z,57.25
2022-09-17T15:41:33.803Z,61.53
2022-09-17T15:44:31.168Z,61.56
2022-09-17T15:47:37.785Z,61.88
2022-09-17T15:50:16.431Z,61.16
2022-09-17T15:52:44.080Z,61.45
2022-09-17T15:55:34.602Z,61.06
2022-09-17T15:58:04.607Z,61.27
2022-09-17T16:00:31.966Z,62.95
2022-09-17T16:03:16.621Z,60.43
2022-09-17T16:05:47.330Z,61.17
2022-09-17T16:08:19.285Z,60.87
2022-09-17T16:10:46.668Z,61.06
2022-09-17T16:13:14.033Z,61.77
2022-09-17T16:15:41.740Z,60.97
2022-09-17T16:18:12.587Z,61.20
2022-09-17T16:20:39.912Z,60.97
2022-09-17T16:23:07.576Z,61.09
2022-09-17T16:25:36.625Z,61.48
2022-09-17T16:28:10.417Z,60.90
2022-09-17T16:30:43.573Z,60.47
2022-09-17T16:33:12.193Z,59.58
2022-09-17T16:35:40.007Z,60.08
2022-09-17T16:38:07.544Z,59.89
2022-09-17T16:40:35.377Z,59.82
2022-09-17T16:43:04.159Z,61.43
2022-09-17T16:45:32.897Z,61.13
2022-09-17T16:48:00.363Z,61.81
2022-09-17T16:50:28.075Z,61.18
2022-09-17T16:52:57.449Z,61.75
2022-09-17T16:55:26.044Z,61.40
2022-09-17T16:57:53.878Z,61.92
2022-09-17T17:00:21.281Z,61.20
2022-09-17T17:02:56.157Z,62.83
2022-09-17T17:05:25.034Z,62.53
2022-09-17T17:07:54.950Z,62.66
2022-09-17T17:10:24.300Z,62.15
2022-09-17T17:12:52.858Z,63.58
2022-09-17T17:15:21.644Z,63.51
2022-09-17T17:17:49.293Z,63.31
2022-09-17T17:20:17.905Z,65.16
2022-09-17T17:22:47.035Z,65.61
2022-09-17T17:25:14.672Z,62.47
2022-09-17T17:27:42.309Z,64.02
2022-09-17T17:30:17.852Z,65.69
2022-09-17T17:32:47.016Z,62.75
2022-09-17T17:35:14.744Z,65.35
2022-09-17T17:37:42.533Z,64.47
2022-09-17T17:40:10.403Z,63.23
2022-09-17T17:42:39.442Z,65.00
2022-09-17T17:45:07.295Z,64.60
2022-09-17T17:47:35.688Z,64.53
2022-09-17T17:50:03.502Z,65.06
2022-09-17T17:52:31.915Z,65.54
2022-09-17T17:54:59.536Z,64.99
2022-09-17T17:57:26.880Z,63.75
2022-09-17T17:59:54.249Z,65.28
2022-09-17T18:02:21.967Z,66.79
2022-09-17T18:04:49.681Z,65.41
2022-09-17T18:07:17.005Z,64.58
2022-09-17T18:09:44.567Z,64.15
2022-09-17T18:12:12.174Z,63.11
2022-09-17T18:14:39.502Z,63.09
2022-09-17T18:17:06.819Z,62.66
2022-09-17T18:19:34.451Z,65.47
2022-09-17T18:22:01.837Z,64.59
2022-09-17T18:24:29.185Z,64.00
2022-09-17T18:26:56.770Z,65.32
2022-09-17T18:29:24.141Z,64.73
2022-09-17T18:31:51.546Z,65.24
2022-09-17T18:34:21.621Z,65.54
2022-09-17T18:36:51.365Z,66.18
2022-09-17T18:42:08.789Z,65.62
2022-09-17T18:44:36.500Z,66.28
2022-09-17T18:47:03.860Z,64.85
2022-09-17T18:49:31.181Z,64.80
2022-09-17T18:51:58.795Z,63.12
2022-09-17T18:54:26.156Z,65.77
2022-09-17T18:56:53.487Z,65.51
2022-09-17T18:59:22.281Z,65.48
2022-09-17T19:01:50.795Z,66.12
2022-09-17T19:04:18.228Z,64.33
2022-09-17T19:06:46.799Z,65.45
2022-09-17T19:09:16.337Z,66.91
2022-09-17T19:11:43.649Z,66.95
2022-09-17T19:14:11.778Z,65.91
2022-09-17T19:16:39.149Z,65.25
2022-09-17T19:19:06.591Z,65.53
2022-09-17T19:21:34.178Z,66.42
2022-09-17T19:24:03.373Z,65.93
2022-09-17T19:26:31.808Z,64.14
2022-09-17T19:29:00.460Z,66.25
2022-09-17T19:31:28.028Z,64.67
2022-09-17T19:33:56.401Z,64.85
2022-09-17T19:36:24.361Z,65.40
2022-09-17T19:38:52.123Z,66.60
2022-09-17T19:41:20.322Z,67.28
2022-09-17T19:43:48.168Z,67.30
2022-09-17T19:46:17.886Z,66.43
2022-09-17T19:48:53.039Z,64.49
2022-09-17T19:51:21.056Z,65.66
2022-09-17T19:53:48.480Z,65.91
2022-09-17T19:56:17.207Z,65.49
2022-09-17T19:58:44.899Z,69.11
2022-09-17T20:01:13.274Z,69.43
2022-09-17T20:03:41.652Z,70.98
2022-09-17T20:06:11.153Z,68.70
2022-09-17T20:08:47.209Z,69.00
2022-09-17T20:11:15.192Z,71.04
2022-09-17T20:13:42.582Z,71.69
2022-09-17T20:16:13.356Z,71.72
2022-09-17T20:18:41.372Z,72.04
2022-09-17T20:21:15.805Z,71.73
2022-09-17T20:23:43.827Z,72.17
2022-09-17T20:26:12.057Z,71.73
2022-09-17T20:28:39.819Z,71.52
2022-09-17T20:31:10.652Z,71.07
2022-09-17T20:33:38.008Z,73.23
2022-09-17T20:36:15.709Z,74.97
2022-09-17T20:41:34.907Z,76.27
2022-09-17T20:44:02.681Z,75.91
2022-09-17T20:46:30.106Z,76.43
2022-09-17T20:48:58.230Z,77.00
2022-09-17T20:51:27.532Z,75.75
2022-09-17T20:53:55.340Z,76.29
2022-09-17T20:56:24.344Z,76.27
2022-09-17T20:59:02.806Z,76.44
2022-09-17T21:01:32.944Z,76.54
2022-09-17T21:04:01.054Z,77.58
2022-09-17T21:06:30.119Z,77.29
2022-09-17T21:08:57.515Z,77.76
2022-09-17T21:11:25.105Z,77.35
2022-09-17T21:13:52.717Z,77.89
2022-09-17T21:16:20.936Z,77.57
2022-09-17T21:18:48.571Z,78.12
2022-09-17T21:21:17.816Z,78.62
2022-09-17T21:23:45.176Z,77.36
2022-09-17T21:26:17.110Z,77.45
2022-09-17T21:28:45.285Z,79.74
2022-09-17T21:31:17.641Z,78.26
2022-09-17T21:33:45.556Z,78.96
2022-09-17T21:36:14.989Z,80.74
2022-09-17T21:38:42.345Z,82.37
2022-09-17T21:41:11.992Z,81.94
2022-09-17T21:43:39.934Z,85.17
2022-09-17T21:46:08.098Z,84.45
2022-09-17T21:48:36.793Z,85.54
2022-09-17T21:51:08.661Z,86.03
2022-09-17T21:53:36.021Z,83.82
2022-09-17T21:56:13.552Z,84.93
2022-09-17T21:58:41.272Z,85.71
2022-09-17T22:01:13.253Z,86.89
2022-09-17T22:03:41.220Z,85.55
2022-09-17T22:06:11.057Z,86.95
2022-09-17T22:08:38.417Z,88.15
2022-09-17T22:11:16.529Z,86.82
2022-09-17T22:14:08.952Z,88.05
2022-09-17T22:16:41.649Z,86.50
2022-09-17T22:19:09.502Z,88.04
2022-09-17T22:21:38.465Z,86.05
2022-09-17T22:24:06.219Z,86.61
2022-09-17T22:26:35.445Z,84.32
2022-09-17T22:29:08.312Z,84.73
2022-09-17T22:31:35.729Z,87.20
2022-09-17T22:34:07.164Z,87.52
2022-09-17T22:36:34.541Z,87.22
2022-09-17T22:39:01.915Z,85.82
2022-09-17T22:41:31.153Z,85.91
2022-09-17T22:43:59.190Z,87.71
2022-09-17T22:46:27.955Z,86.57
2022-09-17T22:48:55.874Z,88.13
2022-09-17T22:51:23.758Z,87.38
2022-09-17T22:53:51.182Z,87.70
2022-09-17T22:56:19.740Z,88.62
2022-09-17T22:58:47.334Z,90.72
2022-09-17T23:01:18.956Z,88.77
2022-09-17T23:03:47.468Z,88.39
2022-09-17T23:06:16.479Z,85.95
2022-09-17T23:08:43.885Z,85.05
2022-09-17T23:11:33.040Z,86.51
2022-09-17T23:14:02.358Z,87.02
2022-09-17T23:16:34.675Z,84.97
2022-09-17T23:19:02.020Z,85.05
2022-09-17T23:21:29.801Z,87.84
2022-09-17T23:23:57.252Z,86.11
2022-09-17T23:26:25.222Z,85.29
2022-09-17T23:28:52.838Z,84.77
2022-09-17T23:31:26.806Z,82.23
2022-09-17T23:33:55.171Z,85.19
2022-09-17T23:36:24.174Z,85.25
2022-09-17T23:38:51.704Z,85.15
2022-09-17T23:41:36.262Z,85.41
2022-09-17T23:44:05.357Z,85.06
2022-09-17T23:46:34.179Z,85.79
2022-09-17T23:49:02.359Z,86.03
2022-09-17T23:51:30.998Z,85.80
2022-09-17T23:53:58.656Z,87.08
2022-09-17T23:56:26.557Z,88.20
2022-09-17T23:58:54.530Z,86.83
